Time;durP1;ratioP1;P1;durP2;ratioP2;P2;SDS_P1;SDS_P2;PMS_P1;PMS_P2;Temp;Humidity;BMP_temperature;BMP_pressure;BME280_temperature;BME280_humidity;BME280_pressure;Samples;Min_cycle;Max_cycle;Signal;HPM_P1;HPM_P2
2023/12/15 00:00:20;;;;;;;7.03;4.30;;;;;;;4.01;100.00;152394.19;5045471;28;20439;-73
2023/12/15 00:02:48;;;;;;;5.87;4.70;;;;;;;4.05;100.00;152403.22;5045071;28;20461;-73
2023/12/15 00:05:14;;;;;;;8.90;5.20;;;;;;;4.04;100.00;152400.63;5054875;28;20454;-73
2023/12/15 00:07:41;;;;;;;7.87;5.47;;;;;;;4.06;100.00;152405.78;5044845;28;20442;-74
2023/12/15 00:10:08;;;;;;;7.93;5.03;;;;;;;4.07;100.00;152409.66;5045281;28;20524;-73
2023/12/15 00:12:35;;;;;;;7.07;5.20;;;;;;;4.04;100.00;152400.63;5043613;28;20471;-74
2023/12/15 00:15:01;;;;;;;8.67;4.27;;;;;;;4.05;100.00;152403.22;5060683;28;20467;-74
2023/12/15 00:17:28;;;;;;;7.03;5.07;;;;;;;4.02;100.00;152396.78;5044541;28;20482;-73
2023/12/15 00:19:55;;;;;;;7.27;4.70;;;;;;;4.01;100.00;152394.19;5050951;28;20790;-74
2023/12/15 00:22:21;;;;;;;7.63;4.97;;;;;;;4.02;100.00;152395.50;5044628;28;20451;-74
2023/12/15 00:24:48;;;;;;;6.60;4.40;;;;;;;4.00;100.00;152391.59;5054039;28;20522;-74
2023/12/15 00:27:14;;;;;;;7.10;4.90;;;;;;;3.98;100.00;152386.47;5052948;28;20447;-73
2023/12/15 00:29:41;;;;;;;7.27;4.70;;;;;;;3.97;100.00;152382.63;5043929;28;20458;-73
2023/12/15 00:32:07;;;;;;;7.60;4.43;;;;;;;3.94;100.00;152374.88;5045421;28;20792;-73
2023/12/15 00:34:34;;;;;;;5.60;3.53;;;;;;;3.94;100.00;152374.88;5045633;28;20474;-73
2023/12/15 00:37:02;;;;;;;5.27;4.33;;;;;;;3.91;100.00;152368.47;5043549;28;20466;-73
2023/12/15 00:39:30;;;;;;;6.03;3.80;;;;;;;3.92;100.00;152371.00;5046016;28;20455;-73
2023/12/15 00:41:57;;;;;;;5.27;3.37;;;;;;;3.94;100.00;152374.88;5059717;28;20532;-74
2023/12/15 00:44:23;;;;;;;4.97;3.77;;;;;;;3.96;100.00;152381.31;5028006;28;20938;-75
2023/12/15 00:46:50;;;;;;;5.07;3.83;;;;;;;3.94;100.00;152374.88;5043472;28;20467;-74
2023/12/15 00:49:16;;;;;;;5.60;3.37;;;;;;;3.93;100.00;152372.28;5044166;28;20450;-74
2023/12/15 00:51:43;;;;;;;6.30;4.00;;;;;;;3.93;100.00;152373.59;5059070;28;20435;-74
2023/12/15 00:54:10;;;;;;;4.77;3.40;;;;;;;3.93;100.00;152372.28;5049702;28;20491;-74
2023/12/15 00:56:37;;;;;;;5.37;3.33;;;;;;;3.86;100.00;152355.56;5040751;28;20459;-74
2023/12/15 00:59:04;;;;;;;5.90;3.80;;;;;;;3.88;100.00;152359.44;5053167;28;20458;-75
2023/12/15 01:01:30;;;;;;;4.27;3.43;;;;;;;3.88;100.00;152359.44;5043523;28;20446;-74
2023/12/15 01:03:57;;;;;;;5.70;3.40;;;;;;;3.87;100.00;152356.81;5052071;28;20556;-74
2023/12/15 01:06:23;;;;;;;4.90;3.53;;;;;;;3.85;100.00;152351.69;5049266;28;20435;-74
2023/12/15 01:08:50;;;;;;;4.83;3.40;;;;;;;3.82;100.00;152343.97;5064298;28;20483;-74
2023/12/15 01:11:18;;;;;;;6.87;5.17;;;;;;;3.82;100.00;152345.25;5049446;28;20447;-74
2023/12/15 01:13:44;;;;;;;7.17;4.00;;;;;;;3.85;100.00;152353.00;5061349;28;20474;-74
2023/12/15 01:16:11;;;;;;;5.50;3.60;;;;;;;3.83;100.00;152346.56;5048530;28;20450;-74
2023/12/15 01:18:37;;;;;;;8.20;4.63;;;;;;;3.83;100.00;152347.84;5056110;28;20758;-74
2023/12/15 01:21:05;;;;;;;5.87;3.90;;;;;;;3.80;100.00;152340.13;5047655;28;20447;-75
2023/12/15 01:23:32;;;;;;;6.07;3.93;;;;;;;3.80;100.00;152340.13;5046453;28;20461;-75
2023/12/15 01:25:58;;;;;;;9.53;4.50;;;;;;;3.78;100.00;152333.69;5038821;28;21013;-75
2023/12/15 01:28:26;;;;;;;6.20;4.17;;;;;;;3.75;100.00;152325.94;5035925;28;20889;-75
2023/12/15 01:30:53;;;;;;;8.13;5.83;;;;;;;3.78;100.00;152333.69;5046962;28;20455;-75
2023/12/15 01:33:19;;;;;;;9.20;5.33;;;;;;;3.79;100.00;152336.22;5057510;28;20449;-75
2023/12/15 01:35:46;;;;;;;5.87;4.33;;;;;;;3.79;100.00;152337.53;5046536;28;20512;-74
2023/12/15 01:38:12;;;;;;;9.60;5.13;;;;;;;3.79;100.00;152336.22;5047589;28;20513;-75
2023/12/15 01:40:39;;;;;;;8.90;5.20;;;;;;;3.79;100.00;152336.22;5045265;28;20961;-74
2023/12/15 01:43:05;;;;;;;7.50;4.77;;;;;;;3.80;100.00;152338.81;5046277;28;20960;-75
2023/12/15 01:45:33;;;;;;;12.03;4.90;;;;;;;3.80;100.00;152340.13;5058718;28;20439;-74
2023/12/15 01:48:00;;;;;;;8.57;5.00;;;;;;;3.80;100.00;152338.81;5048538;28;20508;-75
2023/12/15 01:50:26;;;;;;;10.87;5.10;;;;;;;3.75;100.00;152327.25;5045194;28;20469;-74
2023/12/15 01:52:53;;;;;;;6.23;4.33;;;;;;;3.74;100.00;152323.34;5047064;28;20949;-74
2023/12/15 01:55:19;;;;;;;6.77;5.07;;;;;;;3.73;100.00;152320.81;5049341;28;20475;-75
2023/12/15 01:57:46;;;;;;;8.67;5.00;;;;;;;3.69;100.00;152313.09;5046610;28;20458;-75
2023/12/15 02:00:13;;;;;;;8.23;5.53;;;;;;;3.68;100.00;152310.50;5047129;28;20442;-74
2023/12/15 02:02:41;;;;;;;8.70;5.33;;;;;;;3.66;100.00;152305.34;5048840;28;20454;-84
2023/12/15 02:05:08;;;;;;;8.83;5.47;;;;;;;3.63;100.00;152296.31;5051401;28;20851;-84
2023/12/15 02:07:34;;;;;;;8.03;4.47;;;;;;;3.61;100.00;152292.47;5047556;28;20471;-84
2023/12/15 02:10:01;;;;;;;6.37;4.53;;;;;;;3.59;100.00;152286.03;5046597;28;20442;-84
2023/12/15 02:12:28;;;;;;;7.37;5.00;;;;;;;3.57;100.00;152282.16;5048263;28;20458;-84
2023/12/15 02:14:54;;;;;;;9.17;4.63;;;;;;;3.55;100.00;152275.72;5048061;28;20808;-84
2023/12/15 02:17:21;;;;;;;7.10;5.07;;;;;;;3.53;100.00;152270.59;5052220;28;20490;-84
2023/12/15 02:19:49;;;;;;;6.40;4.30;;;;;;;3.51;100.00;152266.75;5047925;28;20439;-84
2023/12/15 02:22:15;;;;;;;6.53;4.80;;;;;;;3.52;100.00;152268.03;5049524;28;20458;-84
2023/12/15 02:24:43;;;;;;;7.53;5.27;;;;;;;3.50;100.00;152264.16;5048963;28;20438;-84
2023/12/15 02:27:09;;;;;;;6.23;4.70;;;;;;;3.46;100.00;152253.88;5051139;28;20435;-84
2023/12/15 02:29:36;;;;;;;7.67;4.90;;;;;;;3.49;100.00;152260.31;5055516;28;20485;-84
2023/12/15 02:32:03;;;;;;;8.20;5.60;;;;;;;3.46;100.00;152252.59;5049913;28;20477;-84
2023/12/15 02:34:29;;;;;;;7.53;5.50;;;;;;;3.44;100.00;152248.69;5050054;28;20525;-84
2023/12/15 02:36:56;;;;;;;7.53;4.80;;;;;;;3.40;100.00;152238.41;5052520;28;20439;-74
2023/12/15 02:39:22;;;;;;;7.60;4.63;;;;;;;3.35;100.00;152225.56;5063802;28;20445;-75
2023/12/15 02:41:50;;;;;;;7.00;4.30;;;;;;;3.27;100.00;152203.66;5051785;28;20442;-74
2023/12/15 02:44:16;;;;;;;7.40;4.57;;;;;;;3.27;100.00;152203.66;5045360;28;20540;-75
2023/12/15 02:46:43;;;;;;;8.70;5.37;;;;;;;3.21;100.00;152188.22;5062850;28;20431;-75
2023/12/15 02:49:09;;;;;;;7.67;4.57;;;;;;;3.15;100.00;152172.81;5045708;28;20505;-74
2023/12/15 02:51:36;;;;;;;7.70;5.27;;;;;;;3.11;100.00;152163.78;5047789;28;20500;-74
2023/12/15 02:54:03;;;;;;;7.60;4.70;;;;;;;3.13;100.00;152168.91;5044156;28;20999;-75
2023/12/15 02:56:30;;;;;;;7.90;5.70;;;;;;;3.13;100.00;152168.91;5045632;28;20447;-74
2023/12/15 02:58:58;;;;;;;10.03;6.20;;;;;;;3.15;100.00;152172.81;5048184;28;20450;-74
2023/12/15 03:01:24;;;;;;;8.73;6.20;;;;;;;3.16;100.00;152176.66;5047472;28;20865;-84
2023/12/15 03:03:51;;;;;;;10.07;6.63;;;;;;;3.18;100.00;152181.78;5055613;28;20504;-84
2023/12/15 03:06:17;;;;;;;9.03;5.67;;;;;;;3.23;100.00;152194.63;5045691;28;20465;-84
2023/12/15 03:08:44;;;;;;;7.77;5.87;;;;;;;3.26;100.00;152201.06;5045317;28;20814;-83
2023/12/15 03:11:10;;;;;;;7.50;5.43;;;;;;;3.27;100.00;152204.97;5048379;28;20453;-83
2023/12/15 03:13:38;;;;;;;10.13;6.50;;;;;;;3.30;100.00;152211.41;5049449;28;20454;-84
2023/12/15 03:16:08;;;;;;;9.20;5.30;;;;;;;3.32;100.00;152217.81;5043035;28;20445;-84
2023/12/15 03:18:34;;;;;;;9.10;5.90;;;;;;;3.30;100.00;152212.69;5054141;28;20573;-84
2023/12/15 03:21:01;;;;;;;8.97;5.63;;;;;;;3.35;100.00;152225.56;5045818;28;20471;-84
2023/12/15 03:23:28;;;;;;;8.20;5.90;;;;;;;3.34;100.00;152221.66;5053416;28;20450;-84
2023/12/15 03:25:54;;;;;;;8.77;6.20;;;;;;;3.35;100.00;152225.56;5045931;28;20489;-84
2023/12/15 03:28:21;;;;;;;9.53;6.20;;;;;;;3.36;100.00;152228.09;5046283;28;20466;-84
2023/12/15 03:30:47;;;;;;;8.37;5.10;;;;;;;3.37;100.00;152230.69;5045736;28;20865;-84
2023/12/15 03:33:15;;;;;;;8.50;5.40;;;;;;;3.36;100.00;152226.84;5046256;28;20941;-84
2023/12/15 03:35:41;;;;;;;9.83;5.87;;;;;;;3.39;100.00;152235.81;5060813;28;20470;-84
2023/12/15 03:38:10;;;;;;;9.90;6.40;;;;;;;3.37;100.00;152229.41;5046991;28;20584;-84
2023/12/15 03:40:36;;;;;;;9.00;6.47;;;;;;;3.38;100.00;152233.28;5044877;28;20447;-84
2023/12/15 03:43:03;;;;;;;7.43;5.40;;;;;;;3.37;100.00;152229.41;5046534;28;20450;-84
2023/12/15 03:45:29;;;;;;;7.90;5.30;;;;;;;3.37;100.00;152229.41;5043894;28;20450;-84
2023/12/15 03:47:56;;;;;;;7.90;5.30;;;;;;;3.36;100.00;152226.84;5053642;28;20516;-84
2023/12/15 03:50:24;;;;;;;7.50;5.50;;;;;;;3.38;100.00;152232.00;5044409;28;20926;-84
2023/12/15 03:52:51;;;;;;;9.80;5.27;;;;;;;3.36;100.00;152226.84;5051562;28;20454;-84
2023/12/15 03:55:18;;;;;;;6.90;5.27;;;;;;;3.37;100.00;152230.69;5058149;28;21201;-84
2023/12/15 03:57:44;;;;;;;6.73;5.60;;;;;;;3.36;100.00;152228.09;5060303;28;20489;-84
2023/12/15 04:00:12;;;;;;;10.30;6.40;;;;;;;3.37;100.00;152229.41;5043020;28;20443;-84
2023/12/15 04:02:38;;;;;;;8.50;5.93;;;;;;;3.40;100.00;152238.41;5054529;28;20455;-84
2023/12/15 04:05:05;;;;;;;7.50;5.50;;;;;;;3.40;100.00;152238.41;5046390;28;20443;-84
2023/12/15 04:07:33;;;;;;;9.77;6.60;;;;;;;3.39;100.00;152235.81;5046322;28;20454;-84
2023/12/15 04:10:00;;;;;;;10.23;6.40;;;;;;;3.40;100.00;152238.41;5043777;28;21121;-84
2023/12/15 04:12:26;;;;;;;8.10;5.60;;;;;;;3.38;100.00;152233.28;5051318;28;20516;-84
2023/12/15 04:14:53;;;;;;;6.97;4.90;;;;;;;3.39;100.00;152235.81;5051433;28;20470;-84
2023/12/15 04:17:19;;;;;;;9.60;5.53;;;;;;;3.40;100.00;152238.41;5045508;28;20461;-84
2023/12/15 04:19:46;;;;;;;10.43;6.33;;;;;;;3.40;100.00;152238.41;5052112;28;20446;-84
2023/12/15 04:22:12;;;;;;;9.20;6.30;;;;;;;3.43;100.00;152246.16;5043685;28;20463;-84
2023/12/15 04:24:41;;;;;;;12.47;6.27;;;;;;;3.43;100.00;152246.16;5045405;28;20431;-84
2023/12/15 04:27:07;;;;;;;10.90;5.83;;;;;;;3.42;100.00;152242.25;5044886;28;20435;-84
2023/12/15 04:29:33;;;;;;;11.30;7.07;;;;;;;3.42;100.00;152243.56;5043976;28;20457;-84
2023/12/15 04:32:00;;;;;;;7.20;4.67;;;;;;;3.41;100.00;152239.72;5049533;28;20491;-84
2023/12/15 04:34:27;;;;;;;6.90;5.00;;;;;;;3.41;100.00;152241.00;5045390;28;20544;-84
2023/12/15 04:36:53;;;;;;;7.37;5.50;;;;;;;3.42;100.00;152242.25;5046490;28;20445;-84
2023/12/15 04:39:20;;;;;;;8.93;5.50;;;;;;;3.42;100.00;152243.56;5051517;28;20857;-84
2023/12/15 04:41:48;;;;;;;9.17;5.40;;;;;;;3.42;100.00;152243.56;5047300;28;20443;-84
2023/12/15 04:44:14;;;;;;;8.87;5.70;;;;;;;3.45;100.00;152251.28;5054096;28;20458;-84
2023/12/15 04:46:41;;;;;;;7.40;5.27;;;;;;;3.46;100.00;152252.59;5049823;28;20824;-84
2023/12/15 04:49:07;;;;;;;7.83;4.73;;;;;;;3.44;100.00;152248.69;5044126;28;20458;-84
2023/12/15 04:51:34;;;;;;;9.93;6.73;;;;;;;3.45;100.00;152251.28;5043216;28;20948;-84
2023/12/15 04:54:00;;;;;;;7.77;4.90;;;;;;;3.45;100.00;152251.28;5046313;28;20504;-84
2023/12/15 04:56:27;;;;;;;7.73;5.50;;;;;;;3.47;100.00;152256.44;5041274;28;20470;-84
2023/12/15 04:58:55;;;;;;;9.77;6.07;;;;;;;3.49;100.00;152261.59;5043319;28;20455;-84
2023/12/15 05:01:21;;;;;;;8.13;5.57;;;;;;;3.46;100.00;152253.88;5043666;28;20520;-84
2023/12/15 05:03:48;;;;;;;8.67;5.40;;;;;;;3.46;100.00;152253.88;5046445;28;20454;-84
2023/12/15 05:06:18;;;;;;;9.63;5.63;;;;;;;3.49;100.00;152260.31;5037898;28;20451;-84
2023/12/15 05:08:45;;;;;;;6.63;5.53;;;;;;;3.50;100.00;152262.84;5045779;28;20482;-84
2023/12/15 05:11:11;;;;;;;7.80;5.00;;;;;;;3.51;100.00;152265.44;5042466;28;20474;-84
2023/12/15 05:13:38;;;;;;;7.70;5.30;;;;;;;3.50;100.00;152264.16;5044377;28;20462;-83
2023/12/15 05:16:07;;;;;;;7.63;4.87;;;;;;;3.51;100.00;152266.75;5041426;28;20467;-84
2023/12/15 05:18:34;;;;;;;9.63;6.00;;;;;;;3.51;100.00;152266.75;5045424;28;20529;-84
2023/12/15 05:21:01;;;;;;;6.50;5.07;;;;;;;3.49;100.00;152261.59;5042816;28;20457;-84
2023/12/15 05:23:27;;;;;;;6.47;5.13;;;;;;;3.54;100.00;152274.47;5054326;28;20492;-84
2023/12/15 05:25:54;;;;;;;6.90;5.77;;;;;;;3.53;100.00;152270.59;5046448;28;20459;-84
2023/12/15 05:28:22;;;;;;;7.57;5.23;;;;;;;3.52;100.00;152269.28;5044581;28;20458;-84
2023/12/15 05:30:48;;;;;;;10.80;6.13;;;;;;;3.50;100.00;152264.16;5048985;28;20439;-84
2023/12/15 05:33:16;;;;;;;8.93;5.43;;;;;;;3.51;100.00;152266.75;5033632;28;20460;-84
2023/12/15 05:35:43;;;;;;;11.07;6.70;;;;;;;3.51;100.00;152266.75;5024708;28;20462;-84
2023/12/15 05:38:09;;;;;;;9.53;6.27;;;;;;;3.58;100.00;152284.75;5044522;28;20675;-84
2023/12/15 05:40:36;;;;;;;14.33;6.20;;;;;;;3.58;100.00;152284.75;5042601;28;20442;-84
2023/12/15 05:43:02;;;;;;;7.67;5.87;;;;;;;3.56;100.00;152279.63;5041567;28;20466;-84
2023/12/15 05:45:29;;;;;;;7.80;6.43;;;;;;;3.56;100.00;152278.31;5043914;28;20427;-84
2023/12/15 05:47:56;;;;;;;8.30;6.20;;;;;;;3.57;100.00;152282.16;5043689;28;20443;-84
2023/12/15 05:50:24;;;;;;;11.47;6.80;;;;;;;3.56;100.00;152278.31;5027754;28;20439;-84
2023/12/15 05:52:52;;;;;;;9.70;6.20;;;;;;;3.55;100.00;152277.03;5045623;28;20466;-84
2023/12/15 05:55:19;;;;;;;8.57;6.40;;;;;;;3.54;100.00;152273.19;5047867;28;20466;-83
2023/12/15 05:57:45;;;;;;;10.70;6.57;;;;;;;3.57;100.00;152280.91;5049434;28;20465;-83
2023/12/15 06:00:26;;;;;;;9.47;6.53;;;;;;;3.55;100.00;152275.72;5058625;28;20458;-84
2023/12/15 06:02:53;;;;;;;7.43;5.93;;;;;;;3.54;100.00;152273.19;5027775;28;20474;-74
2023/12/15 06:05:19;;;;;;;11.43;6.90;;;;;;;3.55;100.00;152275.72;5044236;28;20950;-74
2023/12/15 06:07:47;;;;;;;9.90;7.20;;;;;;;3.57;100.00;152282.16;5045182;28;20473;-74
2023/12/15 06:10:14;;;;;;;8.57;5.67;;;;;;;3.55;100.00;152277.03;5041380;28;20467;-74
2023/12/15 06:12:40;;;;;;;9.53;7.10;;;;;;;3.54;100.00;152274.47;5041663;28;20486;-74
2023/12/15 06:15:09;;;;;;;9.73;5.87;;;;;;;3.56;100.00;152278.31;5045085;28;20981;-74
2023/12/15 06:17:35;;;;;;;7.80;5.53;;;;;;;3.56;100.00;152278.31;5059560;28;20884;-74
2023/12/15 06:20:02;;;;;;;12.10;7.17;;;;;;;3.56;100.00;152279.63;5041195;28;20838;-74
2023/12/15 06:22:28;;;;;;;9.97;7.37;;;;;;;3.57;100.00;152282.16;5043226;28;20465;-74
2023/12/15 06:24:56;;;;;;;8.70;6.03;;;;;;;3.56;100.00;152279.63;5043655;28;20482;-74
2023/12/15 06:27:22;;;;;;;9.67;6.47;;;;;;;3.56;100.00;152279.63;5043173;28;22418;-74
2023/12/15 06:29:49;;;;;;;8.13;6.00;;;;;;;3.57;100.00;152282.16;5043437;28;20459;-74
2023/12/15 06:32:16;;;;;;;10.33;7.20;;;;;;;3.58;100.00;152283.47;5043445;28;21021;-74
2023/12/15 06:34:43;;;;;;;11.93;6.30;;;;;;;3.58;100.00;152284.75;5045147;28;20451;-74
2023/12/15 06:37:09;;;;;;;8.83;6.53;;;;;;;3.56;100.00;152279.63;5045676;28;20555;-74
2023/12/15 06:39:36;;;;;;;13.00;7.33;;;;;;;3.56;100.00;152279.63;5043493;28;20866;-74
2023/12/15 06:42:04;;;;;;;9.40;6.20;;;;;;;3.57;100.00;152282.16;5045566;28;20464;-74
2023/12/15 06:44:31;;;;;;;10.90;6.37;;;;;;;3.57;100.00;152280.91;5048004;28;20456;-74
2023/12/15 06:46:58;;;;;;;9.93;6.50;;;;;;;3.56;100.00;152279.63;5056781;28;20450;-74
2023/12/15 06:49:30;;;;;;;9.63;6.80;;;;;;;3.58;100.00;152284.75;5045817;28;20924;-74
2023/12/15 06:51:56;;;;;;;6.90;5.30;;;;;;;3.60;100.00;152289.88;5028356;28;20456;-74
2023/12/15 06:54:23;;;;;;;8.03;6.03;;;;;;;3.61;100.00;152291.19;5042147;28;20823;-74
2023/12/15 06:56:50;;;;;;;7.97;6.13;;;;;;;3.58;100.00;152284.75;5045339;28;20470;-73
2023/12/15 06:59:17;;;;;;;7.77;5.97;;;;;;;3.57;100.00;152280.91;5040689;28;20466;-74
2023/12/15 07:01:44;;;;;;;11.20;8.57;;;;;;;3.57;100.00;152282.16;5040970;28;20847;-74
2023/12/15 07:04:11;;;;;;;9.23;6.33;;;;;;;3.58;100.00;152283.47;5040058;28;20833;-74
2023/12/15 07:06:37;;;;;;;7.70;6.60;;;;;;;3.60;100.00;152289.88;5055738;28;20965;-74
2023/12/15 07:09:04;;;;;;;9.10;6.80;;;;;;;3.60;100.00;152289.88;5038823;28;20458;-74
2023/12/15 07:11:30;;;;;;;11.70;6.43;;;;;;;3.60;100.00;152288.66;5041024;28;20969;-74
2023/12/15 07:13:57;;;;;;;10.33;7.00;;;;;;;3.62;100.00;152295.06;5043021;28;20890;-74
2023/12/15 07:16:25;;;;;;;8.77;6.73;;;;;;;3.60;100.00;152289.88;5053881;28;20944;-74
2023/12/15 07:18:51;;;;;;;10.90;7.13;;;;;;;3.60;100.00;152289.88;5057896;28;20490;-74
2023/12/15 07:21:18;;;;;;;10.27;7.27;;;;;;;3.58;100.00;152284.75;5038699;28;20884;-74
2023/12/15 07:23:44;;;;;;;8.80;6.63;;;;;;;3.61;100.00;152292.47;5041189;28;20466;-74
2023/12/15 07:26:11;;;;;;;9.30;6.83;;;;;;;3.61;100.00;152292.47;5053806;28;20996;-73
2023/12/15 07:28:37;;;;;;;7.90;6.10;;;;;;;3.62;100.00;152293.78;5041451;28;20474;-73
2023/12/15 07:31:04;;;;;;;7.73;5.80;;;;;;;3.60;100.00;152289.88;5041266;28;20985;-73
2023/12/15 07:33:32;;;;;;;8.73;6.53;;;;;;;3.60;100.00;152289.88;5039512;28;20458;-74
2023/12/15 07:35:59;;;;;;;9.03;6.77;;;;;;;3.61;100.00;152291.19;5060518;28;20565;-73
2023/12/15 07:38:26;;;;;;;7.93;6.57;;;;;;;3.61;100.00;152292.47;5044063;28;20556;-73
2023/12/15 07:40:54;;;;;;;9.17;6.30;;;;;;;3.61;100.00;152291.19;5040905;28;20818;-73
2023/12/15 07:43:20;;;;;;;8.67;6.37;;;;;;;3.62;100.00;152295.06;5036327;28;20490;-73
2023/12/15 07:45:47;;;;;;;9.70;7.13;;;;;;;3.63;100.00;152297.63;5055960;28;20451;-73
2023/12/15 07:48:15;;;;;;;9.67;5.60;;;;;;;3.65;100.00;152302.75;5038112;28;20563;-73
2023/12/15 07:50:45;;;;;;;10.13;7.20;;;;;;;3.69;100.00;152313.09;5038270;28;20550;-73
2023/12/15 07:53:12;;;;;;;10.63;7.07;;;;;;;3.69;100.00;152311.78;5041997;28;20451;-73
2023/12/15 07:55:38;;;;;;;11.00;7.27;;;;;;;3.69;100.00;152311.78;5044425;28;20558;-74
2023/12/15 07:58:05;;;;;;;10.33;7.10;;;;;;;3.71;100.00;152315.69;5041994;28;20473;-73
2023/12/15 08:00:31;;;;;;;11.20;7.33;;;;;;;3.69;100.00;152313.09;5043455;28;20650;-73
2023/12/15 08:02:58;;;;;;;10.87;7.33;;;;;;;3.69;100.00;152313.09;5042931;28;20454;-73
2023/12/15 08:05:24;;;;;;;10.47;6.23;;;;;;;3.71;100.00;152315.69;5042419;28;22301;-73
2023/12/15 08:07:55;;;;;;;7.57;6.00;;;;;;;3.73;100.00;152320.81;5035767;28;20953;-73
2023/12/15 08:10:26;;;;;;;8.97;6.80;;;;;;;3.74;100.00;152324.66;5041948;28;20443;-74
2023/12/15 08:12:53;;;;;;;7.30;5.90;;;;;;;3.75;100.00;152325.94;5059846;28;20482;-73
2023/12/15 08:15:20;;;;;;;9.43;7.27;;;;;;;3.76;100.00;152328.53;5043573;28;20855;-73
2023/12/15 08:17:46;;;;;;;9.40;7.53;;;;;;;3.76;100.00;152329.78;5043981;28;20504;-73
2023/12/15 08:20:13;;;;;;;9.70;6.93;;;;;;;3.79;100.00;152336.22;5044815;28;20450;-73
2023/12/15 08:22:58;;;;;;;10.30;6.87;;;;;;;3.80;100.00;152340.13;5042565;28;20516;-73
2023/12/15 08:25:25;;;;;;;10.10;7.37;;;;;;;3.81;100.00;152342.72;5041826;28;20447;-74
2023/12/15 08:27:58;;;;;;;12.20;7.83;;;;;;;3.85;100.00;152353.00;5025072;28;20462;-74
2023/12/15 08:30:25;;;;;;;11.20;7.53;;;;;;;3.89;100.00;152362.00;5040839;28;20961;-73
2023/12/15 08:32:51;;;;;;;11.50;7.57;;;;;;;3.89;100.00;152363.25;5036938;28;20463;-73
2023/12/15 08:39:49;;;;;;;13.90;8.23;;;;;;;3.97;100.00;152382.63;5041422;28;20442;-73
2023/12/15 08:42:15;;;;;;;10.50;7.73;;;;;;;3.97;100.00;152383.88;5044722;28;20465;-73
2023/12/15 08:44:43;;;;;;;12.57;8.20;;;;;;;3.99;100.00;152389.06;5042262;28;20478;-75
2023/12/15 08:47:44;;;;;;;12.83;8.13;;;;;;;4.02;100.00;152395.50;5044853;28;20541;-75
2023/12/15 08:50:10;;;;;;;11.13;8.30;;;;;;;4.04;100.00;152400.63;5042618;28;20453;-73
2023/12/15 08:52:37;;;;;;;12.40;7.90;;;;;;;4.06;100.00;152405.78;5047872;28;20451;-73
2023/12/15 08:55:05;;;;;;;12.43;8.67;;;;;;;4.09;100.00;152414.81;5045757;28;20464;-73
2023/12/15 08:57:32;;;;;;;12.60;9.03;;;;;;;4.12;100.00;152422.53;5043399;28;20486;-73
2023/12/15 08:59:58;;;;;;;13.10;9.37;;;;;;;4.15;100.00;152428.97;5036513;28;20451;-73
2023/12/15 09:02:25;;;;;;;12.57;8.47;;;;;;;4.20;100.00;152441.84;5041264;28;20538;-73
2023/12/15 09:04:52;;;;;;;12.67;8.93;;;;;;;4.22;100.00;152447.00;5039701;28;20447;-74
2023/12/15 09:07:18;;;;;;;15.93;9.47;;;;;;;4.25;100.00;152456.03;5043597;28;20466;-73
2023/12/15 09:09:47;;;;;;;11.73;9.63;;;;;;;4.27;100.00;152461.16;5037950;28;20455;-73
2023/12/15 09:12:15;;;;;;;14.17;8.97;;;;;;;4.29;100.00;152466.31;5041962;28;20450;-74
2023/12/15 09:14:42;;;;;;;13.87;10.00;;;;;;;4.30;100.00;152468.91;5044711;28;20848;-73
2023/12/15 09:17:13;;;;;;;13.90;9.70;;;;;;;4.34;100.00;152477.94;5041372;28;20475;-73
2023/12/15 09:19:40;;;;;;;13.27;9.27;;;;;;;4.38;100.00;152488.22;5041411;28;20462;-73
2023/12/15 09:22:10;;;;;;;15.33;9.40;;;;;;;4.40;100.00;152493.34;5039892;28;20461;-73
2023/12/15 09:24:38;;;;;;;14.03;9.53;;;;;;;4.41;100.00;152494.66;5041492;28;20455;-73
2023/12/15 09:27:04;;;;;;;15.80;10.40;;;;;;;4.42;100.00;152498.50;5041932;28;20463;-74
2023/12/15 09:29:35;;;;;;;15.73;9.83;;;;;;;4.44;100.00;152503.69;5043751;28;20443;-74
2023/12/15 09:32:04;;;;;;;14.27;9.43;;;;;;;4.44;100.00;152503.69;5044297;28;20517;-74
2023/12/15 09:34:31;;;;;;;12.00;9.20;;;;;;;4.46;100.00;152508.81;5043831;28;20462;-74
2023/12/15 09:36:57;;;;;;;14.17;10.40;;;;;;;4.49;100.00;152516.56;5045754;28;20474;-74
2023/12/15 09:39:24;;;;;;;14.10;10.50;;;;;;;4.51;100.00;152520.41;5043954;28;20454;-74
2023/12/15 09:41:54;;;;;;;14.10;10.13;;;;;;;4.52;100.00;152524.28;5027544;28;20466;-74
2023/12/15 09:44:20;;;;;;;11.93;9.90;;;;;;;4.53;100.00;152525.53;5044960;28;20822;-74
2023/12/15 09:46:49;;;;;;;13.47;9.23;;;;;;;4.55;100.00;152532.03;5044734;28;20833;-74
2023/12/15 09:49:20;;;;;;;14.77;8.80;;;;;;;4.55;100.00;152532.03;5048177;28;20515;-73
2023/12/15 09:51:49;;;;;;;15.20;9.20;;;;;;;4.58;100.00;152538.47;5043089;28;20435;-74
2023/12/15 09:54:15;;;;;;;11.80;9.00;;;;;;;4.60;100.00;152544.91;5043369;28;20973;-73
2023/12/15 09:56:42;;;;;;;13.43;9.63;;;;;;;4.63;100.00;152552.59;5042413;28;20471;-74
2023/12/15 09:59:08;;;;;;;13.97;9.30;;;;;;;4.66;100.00;152560.34;5044077;28;20455;-74
2023/12/15 10:01:35;;;;;;;12.97;9.30;;;;;;;4.69;100.00;152568.06;5043272;28;20451;-74
2023/12/15 10:04:03;;;;;;;11.07;8.60;;;;;;;4.73;100.00;152578.41;5044839;28;20880;-74
2023/12/15 10:06:29;;;;;;;15.23;8.80;;;;;;;4.74;100.00;152580.97;5042631;28;20447;-74
2023/12/15 10:08:59;;;;;;;10.43;8.00;;;;;;;4.79;100.00;152593.84;5042528;28;20791;-74
2023/12/15 10:11:27;;;;;;;12.70;9.23;;;;;;;4.83;100.00;152602.88;5043641;28;20442;-74
2023/12/15 10:13:54;;;;;;;13.40;9.97;;;;;;;4.87;100.00;152613.22;5043576;28;20466;-74
2023/12/15 10:16:21;;;;;;;14.70;9.40;;;;;;;4.92;100.00;152626.09;5027059;28;20829;-74
2023/12/15 10:18:47;;;;;;;13.93;9.80;;;;;;;4.95;100.00;152632.53;5043158;28;20980;-74
2023/12/15 10:21:15;;;;;;;12.80;9.03;;;;;;;4.98;100.00;152640.28;5044280;28;20861;-74
2023/12/15 10:23:42;;;;;;;13.70;8.93;;;;;;;5.00;100.00;152646.72;5044288;28;20957;-74
2023/12/15 10:26:08;;;;;;;13.37;8.97;;;;;;;5.06;100.00;152660.84;5044400;28;20701;-73
2023/12/15 10:28:36;;;;;;;14.23;8.80;;;;;;;5.08;100.00;152667.34;5043071;28;20473;-74
2023/12/15 10:31:03;;;;;;;13.03;9.10;;;;;;;5.13;100.00;152680.22;5042945;28;20870;-74
2023/12/15 10:33:30;;;;;;;13.47;9.20;;;;;;;5.18;100.00;152691.81;5044296;28;20521;-74
2023/12/15 10:35:58;;;;;;;10.23;7.90;;;;;;;5.21;100.00;152700.84;5041696;28;21643;-74
2023/12/15 10:38:26;;;;;;;15.00;9.23;;;;;;;5.25;100.00;152711.13;5023657;28;20481;-74
2023/12/15 10:40:53;;;;;;;13.23;9.40;;;;;;;5.29;100.00;152720.19;5042953;28;20556;-74
2023/12/15 10:43:21;;;;;;;13.70;9.27;;;;;;;5.31;100.00;152726.63;5044486;28;20463;-74
2023/12/15 10:45:47;;;;;;;10.57;7.90;;;;;;;5.35;100.00;152735.63;5044623;28;20457;-74
2023/12/15 10:48:14;;;;;;;11.63;7.40;;;;;;;5.36;100.00;152739.50;5044093;28;20465;-74
2023/12/15 10:50:42;;;;;;;12.87;9.50;;;;;;;5.38;100.00;152743.34;5043326;28;20481;-74
2023/12/15 10:53:09;;;;;;;10.33;7.07;;;;;;;5.41;100.00;152751.09;5043074;28;20455;-74
2023/12/15 10:55:37;;;;;;;8.70;7.07;;;;;;;5.43;100.00;152756.25;5046407;28;20459;-74
2023/12/15 10:58:06;;;;;;;9.53;7.00;;;;;;;5.47;100.00;152766.59;5044575;28;20474;-74
2023/12/15 11:00:33;;;;;;;11.40;7.87;;;;;;;5.51;100.00;152778.19;5061877;28;20443;-74
2023/12/15 11:03:00;;;;;;;9.70;7.33;;;;;;;5.55;100.00;152787.22;5046583;28;20513;-74
2023/12/15 11:05:27;;;;;;;10.67;6.90;;;;;;;5.58;100.00;152794.97;5045391;28;20467;-73
2023/12/15 11:07:54;;;;;;;11.07;7.50;;;;;;;5.60;100.00;152800.09;5040214;28;20455;-73
2023/12/15 11:10:22;;;;;;;13.43;8.13;;;;;;;5.63;100.00;152806.56;5042967;28;21153;-73
2023/12/15 11:12:50;;;;;;;11.10;7.70;;;;;;;5.64;100.00;152809.16;5044519;28;20477;-73
2023/12/15 11:15:18;;;;;;;12.10;8.50;;;;;;;5.63;100.00;152807.84;5044097;28;20450;-73
2023/12/15 11:17:48;;;;;;;11.50;7.30;;;;;;;5.64;100.00;152810.41;5040510;28;20486;-73
2023/12/15 11:20:39;;;;;;;8.30;6.50;;;;;;;5.67;100.00;152816.84;5046050;28;20451;-73
2023/12/15 11:23:07;;;;;;;9.87;7.47;;;;;;;5.67;100.00;152818.16;5043228;28;20463;-73
2023/12/15 11:25:36;;;;;;;10.27;6.87;;;;;;;5.70;100.00;152824.59;5046486;28;20442;-73